createdAt,value
2019-02-23T00:00:58.395Z,90.89
2019-02-23T00:03:25.134Z,90.41
2019-02-23T00:05:51.850Z,90.38
2019-02-23T00:08:18.711Z,91.00
2019-02-23T00:10:45.437Z,90.19
2019-02-23T00:13:12.171Z,90.66
2019-02-23T00:15:38.882Z,91.06
2019-02-23T00:18:05.626Z,90.20
2019-02-23T00:20:32.375Z,90.30
2019-02-23T00:22:59.111Z,90.57
2019-02-23T00:25:25.870Z,91.13
2019-02-23T00:27:52.597Z,91.00
2019-02-23T00:30:19.341Z,90.64
2019-02-23T00:32:46.081Z,90.11
2019-02-23T00:35:12.809Z,90.65
2019-02-23T00:37:39.542Z,89.56
2019-02-23T00:40:06.334Z,90.08
2019-02-23T00:42:33.057Z,89.69
2019-02-23T00:44:59.802Z,89.19
2019-02-23T00:47:26.525Z,88.88
2019-02-23T00:49:53.254Z,88.72
2019-02-23T00:52:19.989Z,88.79
2019-02-23T00:54:46.707Z,88.68
2019-02-23T00:57:13.441Z,88.30
2019-02-23T00:59:40.153Z,88.78
2019-02-23T01:02:06.934Z,89.54
2019-02-23T01:04:33.641Z,89.07
2019-02-23T01:07:00.383Z,89.06
2019-02-23T01:09:27.102Z,89.75
2019-02-23T01:11:53.826Z,89.45
2019-02-23T01:14:20.626Z,89.60
2019-02-23T01:16:47.434Z,89.31
2019-02-23T01:19:14.162Z,89.75
2019-02-23T01:21:40.902Z,89.48
2019-02-23T01:24:07.617Z,89.54
2019-02-23T01:26:34.361Z,89.44
2019-02-23T01:29:01.086Z,89.34
2019-02-23T01:31:27.829Z,89.31
2019-02-23T01:33:54.541Z,88.26
2019-02-23T01:36:21.282Z,89.03
2019-02-23T01:38:48.001Z,88.63
2019-02-23T01:41:14.721Z,89.13
2019-02-23T01:43:41.442Z,88.61
2019-02-23T01:46:08.189Z,88.00
2019-02-23T01:48:34.906Z,88.61
2019-02-23T01:51:01.669Z,88.89
2019-02-23T01:53:28.393Z,88.76
2019-02-23T01:55:55.129Z,88.81
2019-02-23T01:58:21.865Z,89.12
2019-02-23T02:00:48.597Z,89.48
2019-02-23T02:03:15.314Z,90.46
2019-02-23T02:05:42.077Z,89.80
2019-02-23T02:08:08.812Z,89.82
2019-02-23T02:10:35.689Z,89.86
2019-02-23T02:13:02.422Z,89.70
2019-02-23T02:15:29.142Z,89.95
2019-02-23T02:17:55.878Z,89.85
2019-02-23T02:20:22.609Z,90.29
2019-02-23T02:22:49.360Z,90.13
2019-02-23T02:25:16.090Z,90.00
2019-02-23T02:27:42.816Z,89.88
2019-02-23T02:30:10.121Z,89.68
2019-02-23T02:32:36.845Z,89.68
2019-02-23T02:35:03.779Z,89.64
2019-02-23T02:37:30.504Z,90.13
2019-02-23T02:39:57.218Z,90.51
2019-02-23T02:42:23.950Z,90.16
2019-02-23T02:44:50.661Z,89.99
2019-02-23T02:47:17.398Z,90.01
2019-02-23T02:49:44.115Z,89.70
2019-02-23T02:52:10.845Z,89.85
2019-02-23T02:54:37.564Z,89.93
2019-02-23T02:57:04.348Z,90.13
2019-02-23T02:59:31.050Z,89.88
2019-02-23T03:01:58.912Z,89.65
2019-02-23T03:04:24.515Z,89.79
2019-02-23T03:06:51.242Z,89.50
2019-02-23T03:09:17.958Z,89.80
2019-02-23T03:11:44.709Z,89.27
2019-02-23T03:14:11.474Z,89.23
2019-02-23T03:16:38.196Z,89.08
2019-02-23T03:19:04.937Z,88.80
2019-02-23T03:21:31.645Z,89.03
2019-02-23T03:23:58.385Z,88.38
2019-02-23T03:26:25.110Z,87.98
2019-02-23T03:28:51.833Z,88.46
2019-02-23T03:31:18.699Z,88.50
2019-02-23T03:33:45.440Z,88.73
2019-02-23T03:36:12.157Z,88.65
2019-02-23T03:38:38.889Z,89.14
2019-02-23T03:41:05.681Z,88.78
2019-02-23T03:43:32.410Z,88.70
2019-02-23T03:45:59.147Z,89.18
2019-02-23T03:48:25.991Z,88.65
2019-02-23T03:50:52.714Z,89.14
2019-02-23T03:53:19.492Z,89.03
2019-02-23T03:55:46.205Z,89.11
2019-02-23T03:58:13.022Z,89.14
2019-02-23T04:00:39.797Z,89.63
2019-02-23T04:03:06.561Z,89.81
2019-02-23T04:05:33.281Z,89.77
2019-02-23T04:08:00.010Z,89.72
2019-02-23T04:10:26.717Z,90.15
2019-02-23T04:12:53.442Z,90.01
2019-02-23T04:15:20.278Z,89.50
2019-02-23T04:17:47.018Z,89.34
2019-02-23T04:20:13.727Z,89.91
2019-02-23T04:22:40.451Z,90.20
2019-02-23T04:25:07.209Z,90.18
2019-02-23T04:27:33.918Z,90.32
2019-02-23T04:30:00.650Z,90.11
2019-02-23T04:32:27.375Z,88.72
2019-02-23T04:34:54.099Z,88.87
2019-02-23T04:37:20.988Z,88.74
2019-02-23T04:39:47.707Z,88.32
2019-02-23T04:42:14.409Z,88.08
2019-02-23T04:44:41.141Z,88.08
2019-02-23T04:47:07.857Z,88.24
2019-02-23T04:49:34.594Z,87.62
2019-02-23T04:52:01.347Z,87.23
2019-02-23T04:54:28.075Z,88.41
2019-02-23T04:56:54.807Z,88.43
2019-02-23T04:59:21.548Z,89.17
2019-02-23T05:01:48.262Z,89.51
2019-02-23T05:04:14.990Z,89.83
2019-02-23T05:06:41.718Z,90.55
2019-02-23T05:09:08.445Z,91.32
2019-02-23T05:11:35.161Z,91.57
2019-02-23T05:14:01.902Z,90.94
2019-02-23T05:16:28.617Z,90.36
2019-02-23T05:18:55.343Z,90.47
2019-02-23T05:21:26.572Z,90.10
2019-02-23T05:23:48.794Z,90.24
2019-02-23T05:26:15.507Z,90.29
2019-02-23T05:28:42.243Z,90.16
2019-02-23T05:31:08.972Z,90.19
2019-02-23T05:33:35.710Z,90.74
2019-02-23T05:36:02.418Z,90.88
2019-02-23T05:38:29.158Z,90.91
2019-02-23T05:40:55.882Z,90.68
2019-02-23T05:43:22.623Z,90.09
2019-02-23T05:45:49.346Z,89.62
2019-02-23T05:48:19.285Z,89.94
2019-02-23T05:50:46.001Z,89.55
2019-02-23T05:53:12.829Z,89.87
2019-02-23T05:55:39.547Z,90.15
2019-02-23T05:58:06.277Z,89.90
2019-02-23T06:00:33.010Z,89.92
2019-02-23T06:02:59.737Z,90.48
2019-02-23T06:05:26.455Z,89.94
2019-02-23T06:07:53.178Z,90.20
2019-02-23T06:10:19.895Z,90.28
2019-02-23T06:12:46.606Z,90.74
2019-02-23T06:15:13.331Z,90.80
2019-02-23T06:17:40.078Z,90.83
2019-02-23T06:20:08.050Z,90.91
2019-02-23T06:22:34.749Z,91.48
2019-02-23T06:25:01.531Z,91.50
2019-02-23T06:27:28.245Z,91.26
2019-02-23T06:29:55.038Z,90.72
2019-02-23T06:32:22.058Z,90.66
2019-02-23T06:34:48.810Z,90.77
2019-02-23T06:37:15.533Z,90.91
2019-02-23T06:39:42.275Z,91.50
2019-02-23T06:42:08.987Z,91.84
2019-02-23T06:44:35.729Z,91.54
2019-02-23T06:47:02.470Z,91.50
2019-02-23T06:49:29.206Z,91.73
2019-02-23T06:52:03.959Z,91.02
2019-02-23T06:54:22.658Z,91.27
2019-02-23T06:56:49.395Z,89.96
2019-02-23T06:59:16.150Z,90.30
2019-02-23T07:01:42.893Z,90.92
2019-02-23T07:04:09.615Z,89.76
2019-02-23T07:06:36.554Z,89.54
2019-02-23T07:09:04.274Z,89.16
2019-02-23T07:11:31.054Z,89.04
2019-02-23T07:13:57.806Z,89.59
2019-02-23T07:16:24.530Z,88.67
2019-02-23T07:18:51.271Z,88.68
2019-02-23T07:21:18.007Z,87.54
2019-02-23T07:23:44.742Z,88.60
2019-02-23T07:26:11.481Z,88.23
2019-02-23T07:28:38.223Z,87.78
2019-02-23T07:31:04.950Z,88.28
2019-02-23T07:33:33.112Z,87.97
2019-02-23T07:35:58.430Z,88.20
2019-02-23T07:38:25.129Z,88.55
2019-02-23T07:40:51.866Z,88.95
2019-02-23T07:43:18.586Z,88.40
2019-02-23T07:45:45.345Z,88.10
2019-02-23T07:48:12.065Z,88.28
2019-02-23T07:50:38.798Z,88.08
2019-02-23T07:53:05.548Z,87.56
2019-02-23T07:55:32.285Z,87.52
2019-02-23T07:57:59.006Z,86.31
2019-02-23T08:00:25.729Z,86.56
2019-02-23T08:02:52.434Z,86.39
2019-02-23T08:05:19.167Z,86.60
2019-02-23T08:07:45.888Z,85.64
2019-02-23T08:10:12.636Z,85.90
2019-02-23T08:12:39.345Z,84.80
2019-02-23T08:15:06.710Z,85.79
2019-02-23T08:17:33.435Z,84.37
2019-02-23T08:20:00.287Z,84.41
2019-02-23T08:22:36.866Z,84.36
2019-02-23T08:24:53.757Z,83.80
2019-02-23T08:27:20.598Z,83.73
2019-02-23T08:29:47.338Z,84.18
2019-02-23T08:32:14.170Z,84.20
2019-02-23T08:34:40.955Z,83.34
2019-02-23T08:37:07.706Z,82.16
2019-02-23T08:39:34.430Z,80.76
2019-02-23T08:42:01.180Z,80.75
2019-02-23T08:44:27.897Z,80.53
2019-02-23T08:46:54.648Z,80.81
2019-02-23T08:49:21.366Z,81.71
2019-02-23T08:51:48.205Z,80.45
2019-02-23T08:54:14.916Z,80.35
2019-02-23T08:56:41.655Z,79.25
2019-02-23T08:59:08.365Z,79.32
2019-02-23T09:01:35.100Z,78.20
2019-02-23T09:04:02.062Z,78.60
2019-02-23T09:06:28.822Z,78.03
2019-02-23T09:08:55.542Z,77.43
2019-02-23T09:11:22.274Z,77.80
2019-02-23T09:13:49.002Z,78.11
2019-02-23T09:16:15.822Z,78.20
2019-02-23T09:18:42.549Z,76.90
2019-02-23T09:21:09.438Z,75.03
2019-02-23T09:23:36.156Z,76.40
2019-02-23T09:26:02.903Z,76.15
2019-02-23T09:28:29.633Z,74.81
2019-02-23T09:30:56.397Z,75.85
2019-02-23T09:33:23.118Z,74.38
2019-02-23T09:35:49.866Z,76.28
2019-02-23T09:38:16.593Z,75.14
2019-02-23T09:40:43.346Z,74.79
2019-02-23T09:43:10.069Z,75.06
2019-02-23T09:45:36.830Z,73.83
2019-02-23T09:48:03.549Z,73.81
2019-02-23T09:50:30.298Z,74.30
2019-02-23T09:52:57.022Z,73.73
2019-02-23T09:55:23.749Z,73.90
2019-02-23T09:57:50.499Z,73.54
2019-02-23T10:00:17.246Z,73.12
2019-02-23T10:02:43.994Z,73.40
2019-02-23T10:05:10.816Z,72.24
2019-02-23T10:07:37.566Z,72.80
2019-02-23T10:10:04.562Z,71.96
2019-02-23T10:12:31.302Z,71.80
2019-02-23T10:14:58.026Z,71.77
2019-02-23T10:17:24.770Z,72.13
2019-02-23T10:19:51.490Z,70.83
2019-02-23T10:22:18.242Z,71.93
2019-02-23T10:24:44.980Z,69.76
2019-02-23T10:27:11.725Z,69.71
2019-02-23T10:29:38.456Z,68.71
2019-02-23T10:32:05.201Z,68.79
2019-02-23T10:34:32.009Z,71.03
2019-02-23T10:36:58.749Z,67.79
2019-02-23T10:39:25.481Z,66.86
2019-02-23T10:41:52.218Z,66.25
2019-02-23T10:44:18.948Z,64.85
2019-02-23T10:46:45.682Z,66.33
2019-02-23T10:49:12.574Z,66.46
2019-02-23T10:51:39.322Z,64.22
2019-02-23T10:54:06.041Z,64.37
2019-02-23T10:56:32.789Z,63.68
2019-02-23T10:58:59.533Z,63.17
2019-02-23T11:01:26.276Z,64.49
2019-02-23T11:03:52.998Z,64.91
2019-02-23T11:06:19.725Z,64.26
2019-02-23T11:08:46.470Z,61.71
2019-02-23T11:11:13.193Z,62.48
2019-02-23T11:13:39.930Z,61.70
2019-02-23T11:16:06.649Z,61.83
2019-02-23T11:18:33.385Z,61.68
2019-02-23T11:21:00.117Z,60.29
2019-02-23T11:23:26.869Z,59.50
2019-02-23T11:25:53.593Z,57.07
2019-02-23T11:28:20.327Z,56.28
2019-02-23T11:30:47.055Z,56.93
2019-02-23T11:33:13.790Z,56.05
2019-02-23T11:35:40.534Z,55.54
2019-02-23T11:38:07.274Z,55.27
2019-02-23T11:40:33.994Z,59.23
2019-02-23T11:43:00.730Z,58.48
2019-02-23T11:45:27.598Z,56.54
2019-02-23T11:47:54.334Z,56.85
2019-02-23T11:50:21.135Z,56.91
2019-02-23T11:52:47.869Z,55.76
2019-02-23T11:55:14.605Z,54.89
2019-02-23T11:57:41.365Z,57.58
2019-02-23T12:00:08.309Z,55.50
2019-02-23T12:02:35.071Z,55.64
2019-02-23T12:05:01.794Z,54.22
2019-02-23T12:07:28.537Z,56.31
2019-02-23T12:09:55.258Z,54.53
2019-02-23T12:12:21.997Z,54.59
2019-02-23T12:14:48.715Z,53.35
2019-02-23T12:17:15.445Z,52.47
2019-02-23T12:19:42.165Z,54.74
2019-02-23T12:22:12.370Z,53.63
2019-02-23T12:24:35.649Z,53.11
2019-02-23T12:27:02.373Z,51.16
2019-02-23T12:29:29.109Z,51.39
2019-02-23T12:31:55.825Z,50.90
2019-02-23T12:34:22.591Z,49.67
2019-02-23T12:36:49.334Z,51.03
2019-02-23T12:39:16.079Z,50.06
2019-02-23T12:41:42.801Z,50.01
2019-02-23T12:44:09.538Z,51.81
2019-02-23T12:46:36.266Z,47.95
2019-02-23T12:49:03.015Z,48.06
2019-02-23T12:51:29.740Z,49.89
2019-02-23T12:53:56.470Z,49.57
2019-02-23T12:56:23.189Z,48.08
2019-02-23T12:58:49.957Z,45.49
2019-02-23T13:01:16.697Z,44.43
2019-02-23T13:03:43.421Z,47.26
2019-02-23T13:06:10.138Z,45.28
2019-02-23T13:08:48.597Z,44.06
2019-02-23T13:11:15.318Z,46.66
2019-02-23T13:14:03.262Z,44.40
2019-02-23T13:16:42.221Z,45.47
2019-02-23T13:19:24.402Z,45.95
2019-02-23T13:22:20.029Z,42.53
2019-02-23T13:25:32.774Z,41.84
2019-02-23T13:28:40.389Z,43.70
2019-02-23T13:31:26.127Z,43.18
2019-02-23T13:34:29.305Z,43.41
2019-02-23T13:37:07.138Z,43.25
2019-02-23T13:39:49.066Z,41.93
2019-02-23T13:42:34.102Z,43.42
2019-02-23T13:45:10.112Z,42.93
2019-02-23T13:47:58.916Z,43.73
2019-02-23T13:50:51.059Z,42.04
2019-02-23T13:53:32.936Z,43.46
2019-02-23T13:56:30.561Z,44.15
2019-02-23T13:59:22.853Z,43.73
2019-02-23T14:02:06.029Z,43.86
2019-02-23T14:04:41.744Z,42.38
2019-02-23T14:07:27.795Z,44.03
2019-02-23T14:10:19.187Z,41.93
2019-02-23T14:12:56.386Z,41.09
2019-02-23T14:15:55.233Z,39.72
2019-02-23T14:18:46.141Z,41.00
2019-02-23T14:21:32.642Z,40.55
2019-02-23T14:24:13.076Z,42.22
2019-02-23T14:26:51.943Z,39.89
2019-02-23T14:29:44.337Z,40.74
2019-02-23T14:32:21.047Z,42.32
2019-02-23T14:35:00.617Z,39.98
2019-02-23T14:38:01.162Z,40.07
2019-02-23T14:41:07.615Z,39.49
2019-02-23T14:44:16.450Z,41.75
2019-02-23T14:47:09.878Z,38.98
2019-02-23T14:50:03.299Z,41.01
2019-02-23T14:52:40.786Z,40.84
2019-02-23T14:55:17.366Z,40.25
2019-02-23T14:57:58.982Z,40.91
2019-02-23T15:00:51.893Z,40.08
2019-02-23T15:03:38.394Z,40.83
2019-02-23T15:06:14.571Z,39.95
2019-02-23T15:08:52.325Z,41.71
2019-02-23T15:11:31.143Z,40.43
2019-02-23T15:14:08.115Z,37.40
2019-02-23T15:16:57.914Z,40.09
2019-02-23T15:19:36.230Z,40.49
2019-02-23T15:22:17.232Z,40.76
2019-02-23T15:25:12.517Z,40.08
2019-02-23T15:27:38.802Z,39.82
2019-02-23T15:30:18.460Z,39.33
2019-02-23T15:33:30.214Z,40.63
2019-02-23T15:36:28.662Z,38.56
2019-02-23T15:39:24.546Z,38.74
2019-02-23T15:42:10.655Z,38.36
2019-02-23T15:44:56.613Z,35.87
2019-02-23T15:47:50.676Z,40.33
2019-02-23T15:50:17.584Z,41.10
2019-02-23T15:52:44.319Z,40.02
2019-02-23T15:55:11.021Z,41.08
2019-02-23T15:57:37.774Z,43.07
2019-02-23T16:00:04.701Z,43.06
2019-02-23T16:02:31.442Z,44.23
2019-02-23T16:04:58.173Z,43.09
2019-02-23T16:07:24.902Z,42.54
2019-02-23T16:09:51.622Z,43.83
2019-02-23T16:12:18.381Z,44.85
2019-02-23T16:14:45.077Z,44.88
2019-02-23T16:17:11.898Z,44.40
2019-02-23T16:19:38.677Z,44.18
2019-02-23T16:22:05.346Z,43.33
2019-02-23T16:24:32.058Z,42.52
2019-02-23T16:26:58.798Z,43.77
2019-02-23T16:29:25.528Z,42.17
2019-02-23T16:31:52.539Z,42.08
2019-02-23T16:34:19.265Z,41.92
2019-02-23T16:36:46.006Z,43.08
2019-02-23T16:39:12.734Z,42.67
2019-02-23T16:41:39.694Z,42.17
2019-02-23T16:44:06.920Z,41.88
2019-02-23T16:46:33.655Z,41.77
2019-02-23T16:49:00.366Z,41.95
2019-02-23T16:51:27.134Z,43.37
2019-02-23T16:53:53.856Z,43.46
2019-02-23T16:56:20.574Z,43.76
2019-02-23T16:58:47.309Z,43.11
2019-02-23T17:01:14.030Z,44.22
2019-02-23T17:03:40.766Z,43.94
2019-02-23T17:06:07.595Z,44.91
2019-02-23T17:08:34.362Z,44.90
2019-02-23T17:11:01.319Z,44.63
2019-02-23T17:13:28.069Z,44.26
2019-02-23T17:15:54.789Z,43.63
2019-02-23T17:18:21.660Z,43.66
2019-02-23T17:20:48.245Z,44.01
2019-02-23T17:23:15.053Z,44.29
2019-02-23T17:25:41.733Z,45.49
2019-02-23T17:28:08.478Z,45.01
2019-02-23T17:30:35.213Z,43.90
2019-02-23T17:33:01.958Z,44.29
2019-02-23T17:35:28.676Z,45.20
2019-02-23T17:37:55.439Z,45.08
2019-02-23T17:40:22.158Z,46.08
2019-02-23T17:42:48.979Z,46.75
2019-02-23T17:45:15.650Z,47.62
2019-02-23T17:47:42.402Z,48.21
2019-02-23T17:50:09.118Z,47.94
2019-02-23T17:52:35.898Z,47.73
2019-02-23T17:55:02.650Z,48.05
2019-02-23T17:57:29.387Z,47.92
2019-02-23T17:59:56.189Z,47.74
2019-02-23T18:02:22.930Z,48.09
2019-02-23T18:04:49.680Z,48.41
2019-02-23T18:07:16.430Z,48.22
2019-02-23T18:09:43.157Z,48.54
2019-02-23T18:12:09.907Z,48.05
2019-02-23T18:14:37.570Z,48.87
2019-02-23T18:17:04.333Z,49.49
2019-02-23T18:19:31.158Z,48.36
2019-02-23T18:21:57.881Z,48.49
2019-02-23T18:24:24.629Z,47.59
2019-02-23T18:26:51.453Z,48.21
2019-02-23T18:29:18.191Z,48.46
2019-02-23T18:31:44.906Z,48.17
2019-02-23T18:34:11.647Z,47.15
2019-02-23T18:36:38.366Z,47.25
2019-02-23T18:39:05.137Z,46.16
2019-02-23T18:41:31.864Z,46.40
2019-02-23T18:43:58.617Z,46.22
2019-02-23T18:46:25.337Z,46.07
2019-02-23T18:48:52.102Z,46.51
2019-02-23T18:51:19.507Z,46.17
2019-02-23T18:53:46.222Z,46.88
2019-02-23T18:56:12.952Z,46.86
2019-02-23T18:58:39.701Z,46.37
2019-02-23T19:01:06.429Z,46.95
2019-02-23T19:03:33.164Z,45.71
2019-02-23T19:05:59.886Z,46.34
2019-02-23T19:08:26.625Z,45.33
2019-02-23T19:10:53.345Z,46.29
2019-02-23T19:13:20.090Z,46.57
2019-02-23T19:15:46.895Z,47.34
2019-02-23T19:18:13.742Z,47.39
2019-02-23T19:20:40.477Z,47.36
2019-02-23T19:23:07.254Z,47.09
2019-02-23T19:25:33.998Z,48.23
2019-02-23T19:28:00.754Z,47.28
2019-02-23T19:30:27.532Z,47.85
2019-02-23T19:32:54.257Z,47.62
2019-02-23T19:35:20.994Z,47.95
2019-02-23T19:37:47.713Z,48.23
2019-02-23T19:40:14.465Z,48.24
2019-02-23T19:42:41.181Z,49.31
2019-02-23T19:45:08.025Z,49.89
2019-02-23T19:47:34.817Z,49.65
2019-02-23T19:50:07.321Z,50.28
2019-02-23T19:52:34.164Z,49.41
2019-02-23T19:55:00.973Z,51.14
2019-02-23T19:57:27.802Z,50.92
2019-02-23T19:59:54.537Z,50.47
2019-02-23T20:02:21.262Z,51.22
2019-02-23T20:04:48.243Z,50.73
2019-02-23T20:07:14.967Z,51.36
2019-02-23T20:09:41.706Z,50.79
2019-02-23T20:12:08.423Z,51.03
2019-02-23T20:14:35.182Z,50.33
2019-02-23T20:17:02.034Z,49.94
2019-02-23T20:19:28.778Z,50.89
2019-02-23T20:21:55.514Z,51.00
2019-02-23T20:24:22.254Z,52.32
2019-02-23T20:26:55.390Z,51.36
2019-02-23T20:29:15.695Z,52.05
2019-02-23T20:31:42.442Z,51.61
2019-02-23T20:34:09.179Z,50.84
2019-02-23T20:36:35.953Z,53.16
2019-02-23T20:39:03.113Z,53.44
2019-02-23T20:41:29.828Z,50.64
2019-02-23T20:43:56.571Z,50.21
2019-02-23T20:46:23.323Z,49.24
2019-02-23T20:48:50.050Z,49.75
2019-02-23T20:51:16.765Z,47.88
2019-02-23T20:53:43.507Z,49.81
2019-02-23T20:56:10.233Z,47.16
2019-02-23T20:58:36.957Z,47.67
2019-02-23T21:01:03.695Z,46.93
2019-02-23T21:03:30.473Z,47.61
2019-02-23T21:05:57.201Z,48.36
2019-02-23T21:08:23.918Z,48.30
2019-02-23T21:10:50.662Z,48.39
2019-02-23T21:13:17.538Z,47.61
2019-02-23T21:15:44.298Z,48.56
2019-02-23T21:18:11.018Z,47.26
2019-02-23T21:20:37.762Z,48.65
2019-02-23T21:23:04.474Z,47.24
2019-02-23T21:25:31.432Z,48.74
2019-02-23T21:27:57.936Z,49.64
2019-02-23T21:30:24.681Z,51.09
2019-02-23T21:32:51.398Z,50.70
2019-02-23T21:35:18.142Z,50.41
2019-02-23T21:37:44.885Z,48.77
2019-02-23T21:40:12.221Z,48.76
2019-02-23T21:42:38.329Z,47.44
2019-02-23T21:45:05.106Z,49.08
2019-02-23T21:47:31.833Z,50.15
2019-02-23T21:49:58.581Z,49.11
2019-02-23T21:52:25.308Z,51.59
2019-02-23T21:54:52.054Z,51.27
2019-02-23T21:57:22.266Z,51.65
2019-02-23T21:59:45.502Z,50.50
2019-02-23T22:02:12.206Z,48.61
2019-02-23T22:04:38.942Z,49.09
2019-02-23T22:07:05.658Z,47.86
2019-02-23T22:09:32.378Z,47.66
2019-02-23T22:11:59.088Z,46.45
2019-02-23T22:14:25.815Z,47.61
2019-02-23T22:16:52.546Z,47.52
2019-02-23T22:19:19.301Z,47.71
2019-02-23T22:21:46.104Z,46.16
2019-02-23T22:24:12.833Z,47.39
2019-02-23T22:26:39.576Z,47.42
2019-02-23T22:29:06.278Z,47.23
2019-02-23T22:31:33.009Z,47.85
2019-02-23T22:33:59.726Z,47.44
2019-02-23T22:36:26.478Z,47.34
2019-02-23T22:38:53.203Z,46.63
2019-02-23T22:41:20.029Z,46.11
2019-02-23T22:43:46.761Z,46.07
2019-02-23T22:46:13.498Z,46.71
2019-02-23T22:48:40.217Z,44.86
2019-02-23T22:51:06.949Z,44.60
2019-02-23T22:53:33.662Z,45.15
2019-02-23T22:56:00.389Z,44.93
2019-02-23T22:58:27.115Z,46.15
2019-02-23T23:00:57.714Z,46.01
2019-02-23T23:03:24.438Z,46.99
2019-02-23T23:05:51.158Z,45.81
2019-02-23T23:08:17.946Z,46.98
2019-02-23T23:10:44.721Z,45.26
2019-02-23T23:13:11.450Z,45.85
2019-02-23T23:15:38.205Z,47.45
2019-02-23T23:18:04.929Z,47.75
2019-02-23T23:20:31.706Z,47.20
2019-02-23T23:22:58.423Z,47.20
2019-02-23T23:25:25.148Z,47.50
2019-02-23T23:27:51.862Z,48.21
2019-02-23T23:30:18.569Z,48.56
2019-02-23T23:32:45.297Z,48.80
2019-02-23T23:35:12.006Z,48.59
2019-02-23T23:37:38.737Z,49.21
2019-02-23T23:40:05.487Z,48.88
2019-02-23T23:42:32.222Z,48.41
2019-02-23T23:44:58.942Z,49.04
2019-02-23T23:47:25.673Z,49.01
2019-02-23T23:49:52.379Z,50.33
2019-02-23T23:52:19.122Z,48.64
2019-02-23T23:54:45.820Z,49.44
2019-02-23T23:57:12.559Z,50.02
2019-02-23T23:59:39.283Z,51.23
